Arcadia Highway — 3FQT4 — position and weather

sailwx.info

Track history (hours):
 
Tides and Currents Weather Stations Pressure Air Temp Water Temp Dewpoint Dewpoint Depression Visibility Wind Speed Wind Dir Waves Ship Positions

Arcadia Highway

Last reported at 2015-May-27 00:33 UTC. Time now 2015-May-27 17:58 UTC.
Position N 01°17' E 103°45'.

Length 179 m; draft 7.1 m.

Type: Cargo ship. MMSI: 354342000.

Date/timePositionNaut miles runAvg speedWind from/ knotsBaromVisibWave heightAir tempDewpointWater temp
2015-May-27 00:33N 01°17' E 103°45'0 0.1
2015-May-26 21:20N 01°17' E 103°45'0 0.0
2015-May-26 14:31N 01°17' E 103°45'1 1.4
2015-May-26 13:30N 01°16' E 103°46'4 4.0
2015-May-26 12:32N 01°13' E 103°48'7 3.4
2015-May-26 10:29N 01°16' E 103°55'0 0.0
2015-May-26 09:23N 01°16' E 103°55'0 0.0
2015-May-26 07:11N 01°16' E 103°55'0 0.0
2015-May-26 01:29N 01°16' E 103°55'0 0.0
2015-May-25 23:20N 01°16' E 103°55'0 0.0
2015-May-25 19:26N 01°16' E 103°55'0 0.0
2015-May-25 17:20N 01°16' E 103°55'0 0.0
2015-May-25 12:32N 01°16' E 103°55'1 1.2
2015-May-25 11:32N 01°15' E 103°54'7 7.2
2015-May-25 10:33N 01°14' E 103°47'3 3.0
2015-May-25 09:22N 01°17' E 103°45'0 0.0
2015-May-25 08:29N 01°17' E 103°45'0 0.0
2015-May-25 07:28N 01°17' E 103°45'0 0.0
2015-May-25 06:22N 01°17' E 103°45'0 0.0
2015-May-25 05:28N 01°17' E 103°45'0 0.0
2015-May-25 04:22N 01°17' E 103°45'0 0.0
2015-May-25 03:22N 01°17' E 103°45'0 0.0
2015-May-25 02:28N 01°17' E 103°45'0 0.0
2015-May-25 00:16N 01°17' E 103°45'1 1.5
2015-May-24 23:20N 01°16' E 103°46'7 6.4
2015-May-24 22:17N 01°13' E 103°52'5 7.1
2015-May-24 21:32N 01°15' E 103°57'  
Track history (hours):
 
Tides and Currents Weather Stations Pressure Air Temp Water Temp Dewpoint Dewpoint Depression Visibility Wind Speed Wind Dir Waves Ship Positions

Arcadia Highway

Last reported at 2015-May-27 00:33 UTC. Time now 2015-May-27 17:58 UTC.
Position N 01°17' E 103°45'.

Length 179 m; draft 7.1 m.

Type: Cargo ship. MMSI: 354342000.

Date/timePositionNaut miles runAvg speedWind from/ knotsBaromVisibWave heightAir tempDewpointWater temp
2015-May-27 00:33N 01°17' E 103°45'0 0.1
2015-May-26 21:20N 01°17' E 103°45'0 0.0
2015-May-26 14:31N 01°17' E 103°45'1 1.4
2015-May-26 13:30N 01°16' E 103°46'4 4.0
2015-May-26 12:32N 01°13' E 103°48'7 3.4
2015-May-26 10:29N 01°16' E 103°55'0 0.0
2015-May-26 09:23N 01°16' E 103°55'0 0.0
2015-May-26 07:11N 01°16' E 103°55'0 0.0
2015-May-26 01:29N 01°16' E 103°55'0 0.0
2015-May-25 23:20N 01°16' E 103°55'0 0.0
2015-May-25 19:26N 01°16' E 103°55'0 0.0
2015-May-25 17:20N 01°16' E 103°55'0 0.0
2015-May-25 12:32N 01°16' E 103°55'1 1.2
2015-May-25 11:32N 01°15' E 103°54'7 7.2
2015-May-25 10:33N 01°14' E 103°47'3 3.0
2015-May-25 09:22N 01°17' E 103°45'0 0.0
2015-May-25 08:29N 01°17' E 103°45'0 0.0
2015-May-25 07:28N 01°17' E 103°45'0 0.0
2015-May-25 06:22N 01°17' E 103°45'0 0.0
2015-May-25 05:28N 01°17' E 103°45'0 0.0
2015-May-25 04:22N 01°17' E 103°45'0 0.0
2015-May-25 03:22N 01°17' E 103°45'0 0.0
2015-May-25 02:28N 01°17' E 103°45'0 0.0
2015-May-25 00:16N 01°17' E 103°45'1 1.5
2015-May-24 23:20N 01°16' E 103°46'7 6.4
2015-May-24 22:17N 01°13' E 103°52'5 7.1
2015-May-24 21:32N 01°15' E 103°57'  

Dump ship's entire track history